sensor_id;sensor_type;location;lat;lon;timestamp;P1;durP1;ratioP1;P2;durP2;ratioP2
9248;SDS011;4660;41.768;26.198;2023-07-31T00:00:42;3.25;;;1.92;;
9248;SDS011;4660;41.768;26.198;2023-07-31T00:03:07;5.72;;;1.50;;
9248;SDS011;4660;41.768;26.198;2023-07-31T00:05:32;2.42;;;2.00;;
9248;SDS011;4660;41.768;26.198;2023-07-31T00:07:58;3.55;;;1.60;;
9248;SDS011;4660;41.768;26.198;2023-07-31T00:10:23;2.45;;;1.75;;
9248;SDS011;4660;41.768;26.198;2023-07-31T00:12:49;2.35;;;1.48;;
9248;SDS011;4660;41.768;26.198;2023-07-31T00:15:15;2.90;;;1.52;;
9248;SDS011;4660;41.768;26.198;2023-07-31T00:17:40;3.13;;;1.65;;
9248;SDS011;4660;41.768;26.198;2023-07-31T00:20:06;1.63;;;1.30;;
9248;SDS011;4660;41.768;26.198;2023-07-31T00:22:32;1.80;;;1.45;;
9248;SDS011;4660;41.768;26.198;2023-07-31T00:24:57;1.60;;;1.50;;
9248;SDS011;4660;41.768;26.198;2023-07-31T00:27:24;4.40;;;1.92;;
9248;SDS011;4660;41.768;26.198;2023-07-31T00:29:50;1.92;;;1.63;;
9248;SDS011;4660;41.768;26.198;2023-07-31T00:32:15;3.90;;;1.65;;
9248;SDS011;4660;41.768;26.198;2023-07-31T00:34:41;2.75;;;2.08;;
9248;SDS011;4660;41.768;26.198;2023-07-31T00:37:06;1.98;;;1.58;;
9248;SDS011;4660;41.768;26.198;2023-07-31T00:39:33;4.28;;;1.60;;
9248;SDS011;4660;41.768;26.198;2023-07-31T00:41:59;1.65;;;1.45;;
9248;SDS011;4660;41.768;26.198;2023-07-31T00:44:24;1.90;;;1.70;;
9248;SDS011;4660;41.768;26.198;2023-07-31T00:46:50;1.67;;;1.27;;
9248;SDS011;4660;41.768;26.198;2023-07-31T00:49:15;4.60;;;1.77;;
9248;SDS011;4660;41.768;26.198;2023-07-31T00:51:41;3.17;;;1.40;;
9248;SDS011;4660;41.768;26.198;2023-07-31T00:54:07;1.27;;;1.15;;
9248;SDS011;4660;41.768;26.198;2023-07-31T00:56:33;1.90;;;1.55;;
9248;SDS011;4660;41.768;26.198;2023-07-31T00:58:58;3.92;;;1.60;;
9248;SDS011;4660;41.768;26.198;2023-07-31T01:01:24;2.03;;;1.75;;
9248;SDS011;4660;41.768;26.198;2023-07-31T01:03:50;2.70;;;1.40;;
9248;SDS011;4660;41.768;26.198;2023-07-31T01:06:34;1.80;;;1.70;;
9248;SDS011;4660;41.768;26.198;2023-07-31T01:09:08;1.50;;;1.30;;
9248;SDS011;4660;41.768;26.198;2023-07-31T01:11:43;1.52;;;1.40;;
9248;SDS011;4660;41.768;26.198;2023-07-31T01:14:14;2.53;;;1.65;;
9248;SDS011;4660;41.768;26.198;2023-07-31T01:16:39;1.55;;;1.40;;
9248;SDS011;4660;41.768;26.198;2023-07-31T01:19:05;3.45;;;1.83;;
9248;SDS011;4660;41.768;26.198;2023-07-31T01:27:33;2.40;;;1.60;;
9248;SDS011;4660;41.768;26.198;2023-07-31T01:32:47;2.85;;;1.85;;
9248;SDS011;4660;41.768;26.198;2023-07-31T01:35:14;3.95;;;2.20;;
9248;SDS011;4660;41.768;26.198;2023-07-31T01:37:40;4.22;;;2.08;;
9248;SDS011;4660;41.768;26.198;2023-07-31T01:40:06;3.38;;;1.90;;
9248;SDS011;4660;41.768;26.198;2023-07-31T01:42:32;4.20;;;1.90;;
9248;SDS011;4660;41.768;26.198;2023-07-31T01:44:58;3.58;;;1.92;;
9248;SDS011;4660;41.768;26.198;2023-07-31T01:47:23;2.30;;;1.98;;
9248;SDS011;4660;41.768;26.198;2023-07-31T01:49:49;3.72;;;1.90;;
9248;SDS011;4660;41.768;26.198;2023-07-31T01:52:14;4.03;;;2.40;;
9248;SDS011;4660;41.768;26.198;2023-07-31T01:54:40;2.97;;;2.10;;
9248;SDS011;4660;41.768;26.198;2023-07-31T01:57:05;2.42;;;2.00;;
9248;SDS011;4660;41.768;26.198;2023-07-31T01:59:31;2.65;;;1.90;;
9248;SDS011;4660;41.768;26.198;2023-07-31T02:01:57;3.13;;;1.92;;
9248;SDS011;4660;41.768;26.198;2023-07-31T02:04:22;3.95;;;2.20;;
9248;SDS011;4660;41.768;26.198;2023-07-31T02:06:48;5.82;;;2.10;;
9248;SDS011;4660;41.768;26.198;2023-07-31T02:09:13;3.28;;;2.05;;
9248;SDS011;4660;41.768;26.198;2023-07-31T02:11:38;2.17;;;1.75;;
9248;SDS011;4660;41.768;26.198;2023-07-31T02:14:04;3.88;;;2.17;;
9248;SDS011;4660;41.768;26.198;2023-07-31T02:16:29;5.55;;;2.35;;
9248;SDS011;4660;41.768;26.198;2023-07-31T02:18:55;2.40;;;1.95;;
9248;SDS011;4660;41.768;26.198;2023-07-31T02:21:20;2.58;;;2.38;;
9248;SDS011;4660;41.768;26.198;2023-07-31T02:23:46;2.22;;;1.85;;
9248;SDS011;4660;41.768;26.198;2023-07-31T02:26:12;4.50;;;2.50;;
9248;SDS011;4660;41.768;26.198;2023-07-31T02:28:37;4.45;;;2.20;;
9248;SDS011;4660;41.768;26.198;2023-07-31T02:31:03;4.07;;;2.00;;
9248;SDS011;4660;41.768;26.198;2023-07-31T02:33:28;2.67;;;1.90;;
9248;SDS011;4660;41.768;26.198;2023-07-31T02:35:54;3.83;;;2.42;;
9248;SDS011;4660;41.768;26.198;2023-07-31T02:38:19;3.10;;;2.17;;
9248;SDS011;4660;41.768;26.198;2023-07-31T02:40:45;4.00;;;2.00;;
9248;SDS011;4660;41.768;26.198;2023-07-31T02:43:10;12.52;;;2.55;;
9248;SDS011;4660;41.768;26.198;2023-07-31T02:45:36;5.78;;;2.70;;
9248;SDS011;4660;41.768;26.198;2023-07-31T02:48:01;6.10;;;2.53;;
9248;SDS011;4660;41.768;26.198;2023-07-31T02:50:27;2.83;;;2.35;;
9248;SDS011;4660;41.768;26.198;2023-07-31T02:52:53;4.40;;;2.60;;
9248;SDS011;4660;41.768;26.198;2023-07-31T02:55:19;3.88;;;2.40;;
9248;SDS011;4660;41.768;26.198;2023-07-31T02:57:44;4.28;;;2.40;;
9248;SDS011;4660;41.768;26.198;2023-07-31T03:00:10;3.40;;;2.53;;
9248;SDS011;4660;41.768;26.198;2023-07-31T03:02:35;9.52;;;2.90;;
9248;SDS011;4660;41.768;26.198;2023-07-31T03:05:01;3.88;;;2.58;;
9248;SDS011;4660;41.768;26.198;2023-07-31T03:07:27;3.42;;;2.15;;
9248;SDS011;4660;41.768;26.198;2023-07-31T03:09:52;2.42;;;2.13;;
9248;SDS011;4660;41.768;26.198;2023-07-31T03:12:18;3.25;;;2.15;;
9248;SDS011;4660;41.768;26.198;2023-07-31T03:14:44;4.28;;;2.33;;
9248;SDS011;4660;41.768;26.198;2023-07-31T03:17:10;3.60;;;2.40;;
9248;SDS011;4660;41.768;26.198;2023-07-31T03:19:35;4.43;;;2.40;;
9248;SDS011;4660;41.768;26.198;2023-07-31T03:22:03;2.42;;;2.00;;
9248;SDS011;4660;41.768;26.198;2023-07-31T03:24:28;4.78;;;2.13;;
9248;SDS011;4660;41.768;26.198;2023-07-31T03:26:54;5.20;;;2.05;;
9248;SDS011;4660;41.768;26.198;2023-07-31T03:29:20;3.97;;;2.72;;
9248;SDS011;4660;41.768;26.198;2023-07-31T03:31:45;5.10;;;2.53;;
9248;SDS011;4660;41.768;26.198;2023-07-31T03:34:11;5.82;;;2.83;;
9248;SDS011;4660;41.768;26.198;2023-07-31T03:36:36;7.38;;;2.58;;
9248;SDS011;4660;41.768;26.198;2023-07-31T03:39:02;2.40;;;2.00;;
9248;SDS011;4660;41.768;26.198;2023-07-31T03:41:28;3.13;;;2.40;;
9248;SDS011;4660;41.768;26.198;2023-07-31T03:43:54;4.93;;;2.75;;
9248;SDS011;4660;41.768;26.198;2023-07-31T03:46:21;9.48;;;3.70;;
9248;SDS011;4660;41.768;26.198;2023-07-31T03:48:48;5.07;;;3.13;;
9248;SDS011;4660;41.768;26.198;2023-07-31T03:51:13;4.70;;;2.90;;
9248;SDS011;4660;41.768;26.198;2023-07-31T03:53:39;2.42;;;2.22;;
9248;SDS011;4660;41.768;26.198;2023-07-31T03:56:04;4.05;;;3.10;;
9248;SDS011;4660;41.768;26.198;2023-07-31T03:58:30;2.47;;;2.28;;
9248;SDS011;4660;41.768;26.198;2023-07-31T04:00:56;3.17;;;2.38;;
9248;SDS011;4660;41.768;26.198;2023-07-31T04:03:21;7.90;;;2.50;;
9248;SDS011;4660;41.768;26.198;2023-07-31T04:05:47;3.10;;;2.53;;
9248;SDS011;4660;41.768;26.198;2023-07-31T04:08:13;4.70;;;2.58;;
9248;SDS011;4660;41.768;26.198;2023-07-31T04:10:38;4.75;;;2.55;;
9248;SDS011;4660;41.768;26.198;2023-07-31T04:13:03;7.97;;;1.98;;
9248;SDS011;4660;41.768;26.198;2023-07-31T04:15:29;4.85;;;2.05;;
9248;SDS011;4660;41.768;26.198;2023-07-31T04:17:55;6.93;;;2.30;;
9248;SDS011;4660;41.768;26.198;2023-07-31T04:20:20;8.10;;;2.53;;
9248;SDS011;4660;41.768;26.198;2023-07-31T04:22:46;6.68;;;1.88;;
9248;SDS011;4660;41.768;26.198;2023-07-31T04:25:11;4.63;;;2.20;;
9248;SDS011;4660;41.768;26.198;2023-07-31T04:27:37;3.25;;;1.60;;
9248;SDS011;4660;41.768;26.198;2023-07-31T04:30:02;3.83;;;1.80;;
9248;SDS011;4660;41.768;26.198;2023-07-31T04:32:28;2.50;;;1.85;;
9248;SDS011;4660;41.768;26.198;2023-07-31T04:34:54;3.65;;;1.83;;
9248;SDS011;4660;41.768;26.198;2023-07-31T04:37:20;3.47;;;1.60;;
9248;SDS011;4660;41.768;26.198;2023-07-31T04:39:46;1.90;;;1.77;;
9248;SDS011;4660;41.768;26.198;2023-07-31T04:42:11;4.30;;;1.77;;
9248;SDS011;4660;41.768;26.198;2023-07-31T04:44:37;3.83;;;1.73;;
9248;SDS011;4660;41.768;26.198;2023-07-31T04:47:03;6.38;;;1.92;;
9248;SDS011;4660;41.768;26.198;2023-07-31T04:49:28;5.40;;;2.00;;
9248;SDS011;4660;41.768;26.198;2023-07-31T04:51:54;3.60;;;1.40;;
9248;SDS011;4660;41.768;26.198;2023-07-31T04:54:19;2.15;;;1.90;;
9248;SDS011;4660;41.768;26.198;2023-07-31T04:56:45;3.08;;;2.08;;
9248;SDS011;4660;41.768;26.198;2023-07-31T04:59:10;4.00;;;1.80;;
9248;SDS011;4660;41.768;26.198;2023-07-31T05:01:36;2.42;;;1.98;;
9248;SDS011;4660;41.768;26.198;2023-07-31T05:04:01;4.47;;;2.03;;
9248;SDS011;4660;41.768;26.198;2023-07-31T05:06:27;3.97;;;1.90;;
9248;SDS011;4660;41.768;26.198;2023-07-31T05:08:53;3.65;;;2.20;;
9248;SDS011;4660;41.768;26.198;2023-07-31T05:11:26;2.38;;;1.90;;
9248;SDS011;4660;41.768;26.198;2023-07-31T05:13:54;3.85;;;2.00;;
9248;SDS011;4660;41.768;26.198;2023-07-31T05:16:20;1.67;;;1.58;;
9248;SDS011;4660;41.768;26.198;2023-07-31T05:18:45;4.68;;;1.70;;
9248;SDS011;4660;41.768;26.198;2023-07-31T05:21:11;2.17;;;1.50;;
9248;SDS011;4660;41.768;26.198;2023-07-31T05:23:37;1.80;;;1.42;;
9248;SDS011;4660;41.768;26.198;2023-07-31T05:26:03;2.08;;;1.63;;
9248;SDS011;4660;41.768;26.198;2023-07-31T05:28:34;1.95;;;1.70;;
9248;SDS011;4660;41.768;26.198;2023-07-31T05:31:00;2.72;;;1.80;;
9248;SDS011;4660;41.768;26.198;2023-07-31T05:33:27;3.65;;;2.00;;
9248;SDS011;4660;41.768;26.198;2023-07-31T05:35:53;1.95;;;1.80;;
9248;SDS011;4660;41.768;26.198;2023-07-31T05:38:18;3.47;;;2.15;;
9248;SDS011;4660;41.768;26.198;2023-07-31T05:40:44;5.68;;;1.88;;
9248;SDS011;4660;41.768;26.198;2023-07-31T05:43:09;3.17;;;1.73;;
9248;SDS011;4660;41.768;26.198;2023-07-31T05:45:35;2.97;;;1.80;;
9248;SDS011;4660;41.768;26.198;2023-07-31T05:48:02;2.95;;;1.70;;
9248;SDS011;4660;41.768;26.198;2023-07-31T05:50:29;4.30;;;1.85;;
9248;SDS011;4660;41.768;26.198;2023-07-31T05:52:55;2.80;;;2.00;;
9248;SDS011;4660;41.768;26.198;2023-07-31T05:55:21;3.53;;;1.73;;
9248;SDS011;4660;41.768;26.198;2023-07-31T05:57:46;2.20;;;1.70;;
9248;SDS011;4660;41.768;26.198;2023-07-31T06:00:12;5.65;;;1.63;;
9248;SDS011;4660;41.768;26.198;2023-07-31T06:02:38;8.45;;;2.10;;
9248;SDS011;4660;41.768;26.198;2023-07-31T06:05:05;2.80;;;2.22;;
9248;SDS011;4660;41.768;26.198;2023-07-31T06:07:31;2.95;;;1.73;;
9248;SDS011;4660;41.768;26.198;2023-07-31T06:09:57;2.90;;;1.65;;
9248;SDS011;4660;41.768;26.198;2023-07-31T06:12:28;4.72;;;2.05;;
9248;SDS011;4660;41.768;26.198;2023-07-31T06:14:54;2.92;;;1.88;;
9248;SDS011;4660;41.768;26.198;2023-07-31T06:17:20;4.97;;;1.80;;
9248;SDS011;4660;41.768;26.198;2023-07-31T06:19:46;5.75;;;1.70;;
9248;SDS011;4660;41.768;26.198;2023-07-31T06:22:12;3.40;;;1.80;;
9248;SDS011;4660;41.768;26.198;2023-07-31T06:24:38;1.73;;;1.58;;
9248;SDS011;4660;41.768;26.198;2023-07-31T06:27:06;2.80;;;1.45;;
9248;SDS011;4660;41.768;26.198;2023-07-31T06:29:35;2.03;;;1.55;;
9248;SDS011;4660;41.768;26.198;2023-07-31T06:32:03;1.95;;;1.50;;
9248;SDS011;4660;41.768;26.198;2023-07-31T06:34:29;2.33;;;1.50;;
9248;SDS011;4660;41.768;26.198;2023-07-31T06:36:55;2.90;;;2.08;;
9248;SDS011;4660;41.768;26.198;2023-07-31T06:39:21;5.47;;;2.10;;
9248;SDS011;4660;41.768;26.198;2023-07-31T06:41:47;2.08;;;1.70;;
9248;SDS011;4660;41.768;26.198;2023-07-31T06:44:13;3.58;;;1.80;;
9248;SDS011;4660;41.768;26.198;2023-07-31T06:46:39;4.93;;;2.38;;
9248;SDS011;4660;41.768;26.198;2023-07-31T06:49:04;6.70;;;2.17;;
9248;SDS011;4660;41.768;26.198;2023-07-31T06:51:31;5.10;;;1.90;;
9248;SDS011;4660;41.768;26.198;2023-07-31T06:53:57;5.63;;;1.77;;
9248;SDS011;4660;41.768;26.198;2023-07-31T06:56:23;2.35;;;2.00;;
9248;SDS011;4660;41.768;26.198;2023-07-31T06:58:49;7.85;;;2.13;;
9248;SDS011;4660;41.768;26.198;2023-07-31T07:01:14;3.42;;;2.00;;
9248;SDS011;4660;41.768;26.198;2023-07-31T07:03:40;3.10;;;2.10;;
9248;SDS011;4660;41.768;26.198;2023-07-31T07:06:05;4.18;;;1.98;;
9248;SDS011;4660;41.768;26.198;2023-07-31T07:08:31;4.25;;;1.88;;
9248;SDS011;4660;41.768;26.198;2023-07-31T07:10:56;4.18;;;2.10;;
9248;SDS011;4660;41.768;26.198;2023-07-31T07:13:22;3.55;;;2.00;;
9248;SDS011;4660;41.768;26.198;2023-07-31T07:15:48;5.07;;;1.73;;
9248;SDS011;4660;41.768;26.198;2023-07-31T07:18:15;2.47;;;1.98;;
9248;SDS011;4660;41.768;26.198;2023-07-31T07:20:45;2.03;;;1.70;;
9248;SDS011;4660;41.768;26.198;2023-07-31T07:23:11;4.32;;;1.98;;
9248;SDS011;4660;41.768;26.198;2023-07-31T07:26:14;2.47;;;1.58;;
9248;SDS011;4660;41.768;26.198;2023-07-31T07:28:39;4.68;;;1.80;;
9248;SDS011;4660;41.768;26.198;2023-07-31T07:31:05;1.55;;;1.40;;
9248;SDS011;4660;41.768;26.198;2023-07-31T07:33:30;3.05;;;1.50;;
9248;SDS011;4660;41.768;26.198;2023-07-31T07:35:59;4.22;;;1.80;;
9248;SDS011;4660;41.768;26.198;2023-07-31T07:38:25;3.75;;;1.85;;
9248;SDS011;4660;41.768;26.198;2023-07-31T07:40:51;3.42;;;2.25;;
9248;SDS011;4660;41.768;26.198;2023-07-31T07:43:18;6.72;;;2.53;;
9248;SDS011;4660;41.768;26.198;2023-07-31T07:45:46;5.95;;;1.92;;
9248;SDS011;4660;41.768;26.198;2023-07-31T07:48:15;3.78;;;2.22;;
9248;SDS011;4660;41.768;26.198;2023-07-31T07:50:42;3.33;;;2.10;;
9248;SDS011;4660;41.768;26.198;2023-07-31T07:53:09;6.68;;;2.50;;
9248;SDS011;4660;41.768;26.198;2023-07-31T07:55:35;5.88;;;2.60;;
9248;SDS011;4660;41.768;26.198;2023-07-31T07:58:03;6.22;;;2.35;;
9248;SDS011;4660;41.768;26.198;2023-07-31T08:00:34;2.78;;;2.10;;
9248;SDS011;4660;41.768;26.198;2023-07-31T08:02:59;5.95;;;2.47;;
9248;SDS011;4660;41.768;26.198;2023-07-31T08:05:25;2.15;;;1.95;;
9248;SDS011;4660;41.768;26.198;2023-07-31T08:07:51;6.18;;;2.67;;
9248;SDS011;4660;41.768;26.198;2023-07-31T08:10:16;6.90;;;2.70;;
9248;SDS011;4660;41.768;26.198;2023-07-31T08:12:42;3.95;;;2.42;;
9248;SDS011;4660;41.768;26.198;2023-07-31T08:15:07;2.28;;;2.08;;
9248;SDS011;4660;41.768;26.198;2023-07-31T08:17:33;3.85;;;2.58;;
9248;SDS011;4660;41.768;26.198;2023-07-31T08:19:59;7.43;;;2.70;;
9248;SDS011;4660;41.768;26.198;2023-07-31T08:22:24;4.03;;;2.25;;
9248;SDS011;4660;41.768;26.198;2023-07-31T08:24:50;2.95;;;2.40;;
9248;SDS011;4660;41.768;26.198;2023-07-31T08:27:16;3.95;;;2.50;;
9248;SDS011;4660;41.768;26.198;2023-07-31T08:29:41;6.10;;;2.40;;
9248;SDS011;4660;41.768;26.198;2023-07-31T08:32:07;8.55;;;3.47;;
9248;SDS011;4660;41.768;26.198;2023-07-31T08:34:33;5.65;;;2.47;;
9248;SDS011;4660;41.768;26.198;2023-07-31T08:36:58;4.07;;;2.60;;
9248;SDS011;4660;41.768;26.198;2023-07-31T08:39:24;5.28;;;2.47;;
9248;SDS011;4660;41.768;26.198;2023-07-31T08:41:49;4.85;;;2.63;;
9248;SDS011;4660;41.768;26.198;2023-07-31T08:44:15;2.97;;;2.45;;
9248;SDS011;4660;41.768;26.198;2023-07-31T08:46:43;3.40;;;2.50;;
9248;SDS011;4660;41.768;26.198;2023-07-31T08:49:10;3.70;;;2.90;;
9248;SDS011;4660;41.768;26.198;2023-07-31T08:51:36;5.18;;;2.90;;
9248;SDS011;4660;41.768;26.198;2023-07-31T08:54:02;7.10;;;2.80;;
9248;SDS011;4660;41.768;26.198;2023-07-31T08:56:29;3.72;;;2.83;;
9248;SDS011;4660;41.768;26.198;2023-07-31T08:58:57;3.88;;;2.97;;
9248;SDS011;4660;41.768;26.198;2023-07-31T09:01:23;5.22;;;3.30;;
9248;SDS011;4660;41.768;26.198;2023-07-31T09:03:49;5.72;;;3.55;;
9248;SDS011;4660;41.768;26.198;2023-07-31T09:06:18;4.60;;;3.05;;
9248;SDS011;4660;41.768;26.198;2023-07-31T09:08:46;6.03;;;3.65;;
9248;SDS011;4660;41.768;26.198;2023-07-31T09:11:11;3.55;;;3.25;;
9248;SDS011;4660;41.768;26.198;2023-07-31T09:13:38;5.13;;;3.28;;
9248;SDS011;4660;41.768;26.198;2023-07-31T09:16:05;3.78;;;3.17;;
9248;SDS011;4660;41.768;26.198;2023-07-31T09:18:30;5.13;;;2.85;;
9248;SDS011;4660;41.768;26.198;2023-07-31T09:21:03;4.82;;;3.30;;
9248;SDS011;4660;41.768;26.198;2023-07-31T09:23:45;4.57;;;3.10;;
9248;SDS011;4660;41.768;26.198;2023-07-31T09:29:00;3.67;;;3.35;;
9248;SDS011;4660;41.768;26.198;2023-07-31T09:31:42;3.92;;;3.03;;
9248;SDS011;4660;41.768;26.198;2023-07-31T09:34:10;4.53;;;3.13;;
9248;SDS011;4660;41.768;26.198;2023-07-31T09:36:50;5.13;;;2.97;;
9248;SDS011;4660;41.768;26.198;2023-07-31T09:39:22;7.22;;;3.08;;
9248;SDS011;4660;41.768;26.198;2023-07-31T09:41:53;3.58;;;2.63;;
9248;SDS011;4660;41.768;26.198;2023-07-31T09:44:21;2.90;;;2.50;;
9248;SDS011;4660;41.768;26.198;2023-07-31T09:47:08;2.75;;;2.50;;
9248;SDS011;4660;41.768;26.198;2023-07-31T09:49:58;3.45;;;2.70;;
9248;SDS011;4660;41.768;26.198;2023-07-31T09:52:26;4.30;;;2.65;;
9248;SDS011;4660;41.768;26.198;2023-07-31T09:54:53;2.97;;;2.67;;
9248;SDS011;4660;41.768;26.198;2023-07-31T09:57:21;2.72;;;2.25;;
9248;SDS011;4660;41.768;26.198;2023-07-31T09:59:48;4.25;;;2.83;;
9248;SDS011;4660;41.768;26.198;2023-07-31T10:02:22;3.42;;;3.13;;
9248;SDS011;4660;41.768;26.198;2023-07-31T10:04:49;4.15;;;3.25;;
9248;SDS011;4660;41.768;26.198;2023-07-31T10:07:17;3.35;;;2.90;;
9248;SDS011;4660;41.768;26.198;2023-07-31T10:09:44;2.88;;;2.67;;
9248;SDS011;4660;41.768;26.198;2023-07-31T10:12:31;4.05;;;3.65;;
9248;SDS011;4660;41.768;26.198;2023-07-31T10:14:59;4.15;;;3.72;;
9248;SDS011;4660;41.768;26.198;2023-07-31T10:17:26;3.53;;;3.22;;
9248;SDS011;4660;41.768;26.198;2023-07-31T10:19:53;6.18;;;4.10;;
9248;SDS011;4660;41.768;26.198;2023-07-31T10:22:22;5.28;;;3.60;;
9248;SDS011;4660;41.768;26.198;2023-07-31T10:24:48;3.78;;;3.47;;
9248;SDS011;4660;41.768;26.198;2023-07-31T10:27:15;4.85;;;3.40;;
9248;SDS011;4660;41.768;26.198;2023-07-31T10:29:41;3.90;;;3.50;;
9248;SDS011;4660;41.768;26.198;2023-07-31T10:32:13;4.78;;;3.63;;
9248;SDS011;4660;41.768;26.198;2023-07-31T10:35:03;6.18;;;3.83;;
9248;SDS011;4660;41.768;26.198;2023-07-31T10:37:40;3.50;;;3.20;;
9248;SDS011;4660;41.768;26.198;2023-07-31T10:40:25;3.97;;;3.53;;
9248;SDS011;4660;41.768;26.198;2023-07-31T10:42:52;7.68;;;3.97;;
9248;SDS011;4660;41.768;26.198;2023-07-31T10:47:58;4.85;;;4.05;;
9248;SDS011;4660;41.768;26.198;2023-07-31T10:50:26;4.75;;;4.07;;
9248;SDS011;4660;41.768;26.198;2023-07-31T10:52:53;4.50;;;3.90;;
9248;SDS011;4660;41.768;26.198;2023-07-31T10:55:39;5.32;;;4.18;;
9248;SDS011;4660;41.768;26.198;2023-07-31T10:58:12;6.50;;;4.47;;
9248;SDS011;4660;41.768;26.198;2023-07-31T11:00:42;6.47;;;4.75;;
9248;SDS011;4660;41.768;26.198;2023-07-31T11:03:13;5.15;;;4.75;;
9248;SDS011;4660;41.768;26.198;2023-07-31T11:08:17;4.88;;;4.47;;
9248;SDS011;4660;41.768;26.198;2023-07-31T11:10:45;5.90;;;5.40;;
9248;SDS011;4660;41.768;26.198;2023-07-31T11:13:12;4.85;;;4.35;;
9248;SDS011;4660;41.768;26.198;2023-07-31T11:15:38;6.10;;;5.32;;
9248;SDS011;4660;41.768;26.198;2023-07-31T11:18:04;4.93;;;4.53;;
9248;SDS011;4660;41.768;26.198;2023-07-31T11:20:34;5.25;;;4.80;;
9248;SDS011;4660;41.768;26.198;2023-07-31T11:23:10;5.30;;;4.90;;
9248;SDS011;4660;41.768;26.198;2023-07-31T11:25:47;5.60;;;5.10;;
9248;SDS011;4660;41.768;26.198;2023-07-31T11:28:13;4.57;;;4.20;;
9248;SDS011;4660;41.768;26.198;2023-07-31T11:30:41;4.30;;;4.00;;
9248;SDS011;4660;41.768;26.198;2023-07-31T11:33:08;4.20;;;3.90;;
9248;SDS011;4660;41.768;26.198;2023-07-31T11:35:36;4.55;;;4.15;;
9248;SDS011;4660;41.768;26.198;2023-07-31T11:40:55;4.50;;;4.10;;
9248;SDS011;4660;41.768;26.198;2023-07-31T11:43:25;4.15;;;3.85;;
9248;SDS011;4660;41.768;26.198;2023-07-31T11:45:52;4.63;;;4.22;;
9248;SDS011;4660;41.768;26.198;2023-07-31T11:48:24;4.32;;;4.00;;
9248;SDS011;4660;41.768;26.198;2023-07-31T11:50:55;4.20;;;3.90;;
9248;SDS011;4660;41.768;26.198;2023-07-31T11:53:36;5.93;;;4.40;;
9248;SDS011;4660;41.768;26.198;2023-07-31T11:56:09;4.43;;;4.13;;
9248;SDS011;4660;41.768;26.198;2023-07-31T11:58:37;4.57;;;4.18;;
9248;SDS011;4660;41.768;26.198;2023-07-31T12:01:04;4.50;;;4.18;;
9248;SDS011;4660;41.768;26.198;2023-07-31T12:03:30;4.25;;;3.95;;
9248;SDS011;4660;41.768;26.198;2023-07-31T12:05:58;4.15;;;3.60;;
9248;SDS011;4660;41.768;26.198;2023-07-31T12:08:23;4.88;;;4.47;;
9248;SDS011;4660;41.768;26.198;2023-07-31T12:10:50;7.80;;;4.65;;
9248;SDS011;4660;41.768;26.198;2023-07-31T12:13:20;4.32;;;3.92;;
9248;SDS011;4660;41.768;26.198;2023-07-31T12:15:47;4.57;;;4.18;;
9248;SDS011;4660;41.768;26.198;2023-07-31T12:18:14;4.60;;;4.20;;
9248;SDS011;4660;41.768;26.198;2023-07-31T12:20:46;5.90;;;4.43;;
9248;SDS011;4660;41.768;26.198;2023-07-31T12:23:17;4.90;;;4.40;;
9248;SDS011;4660;41.768;26.198;2023-07-31T12:25:44;5.38;;;4.10;;
9248;SDS011;4660;41.768;26.198;2023-07-31T12:28:10;4.68;;;4.28;;
9248;SDS011;4660;41.768;26.198;2023-07-31T12:30:39;4.63;;;4.30;;
9248;SDS011;4660;41.768;26.198;2023-07-31T12:33:13;4.50;;;4.18;;
9248;SDS011;4660;41.768;26.198;2023-07-31T12:35:40;4.10;;;3.70;;
9248;SDS011;4660;41.768;26.198;2023-07-31T12:38:08;3.83;;;3.53;;
9248;SDS011;4660;41.768;26.198;2023-07-31T12:40:35;4.60;;;4.20;;
9248;SDS011;4660;41.768;26.198;2023-07-31T12:43:02;4.18;;;3.88;;
9248;SDS011;4660;41.768;26.198;2023-07-31T12:45:29;3.70;;;3.50;;
9248;SDS011;4660;41.768;26.198;2023-07-31T12:47:56;7.25;;;3.90;;
9248;SDS011;4660;41.768;26.198;2023-07-31T12:50:21;5.25;;;4.07;;
9248;SDS011;4660;41.768;26.198;2023-07-31T12:52:48;4.85;;;4.43;;
9248;SDS011;4660;41.768;26.198;2023-07-31T12:55:14;4.35;;;4.05;;
9248;SDS011;4660;41.768;26.198;2023-07-31T12:57:40;4.72;;;4.32;;
9248;SDS011;4660;41.768;26.198;2023-07-31T13:00:07;4.03;;;3.72;;
9248;SDS011;4660;41.768;26.198;2023-07-31T13:02:33;4.13;;;3.83;;
9248;SDS011;4660;41.768;26.198;2023-07-31T13:04:58;4.40;;;4.10;;
9248;SDS011;4660;41.768;26.198;2023-07-31T13:07:24;4.60;;;4.10;;
9248;SDS011;4660;41.768;26.198;2023-07-31T13:09:50;4.18;;;3.85;;
9248;SDS011;4660;41.768;26.198;2023-07-31T13:12:16;4.82;;;4.35;;
9248;SDS011;4660;41.768;26.198;2023-07-31T13:14:42;4.72;;;4.32;;
9248;SDS011;4660;41.768;26.198;2023-07-31T13:17:07;4.90;;;4.35;;
9248;SDS011;4660;41.768;26.198;2023-07-31T13:19:33;4.40;;;4.00;;
9248;SDS011;4660;41.768;26.198;2023-07-31T13:21:59;4.95;;;4.55;;
9248;SDS011;4660;41.768;26.198;2023-07-31T13:24:24;4.45;;;4.05;;
9248;SDS011;4660;41.768;26.198;2023-07-31T13:26:50;4.65;;;4.28;;
9248;SDS011;4660;41.768;26.198;2023-07-31T13:29:15;4.25;;;3.85;;
9248;SDS011;4660;41.768;26.198;2023-07-31T13:31:41;4.10;;;3.80;;
9248;SDS011;4660;41.768;26.198;2023-07-31T13:34:06;4.45;;;4.00;;
9248;SDS011;4660;41.768;26.198;2023-07-31T13:36:32;4.35;;;3.95;;
9248;SDS011;4660;41.768;26.198;2023-07-31T13:38:59;4.38;;;3.97;;
9248;SDS011;4660;41.768;26.198;2023-07-31T13:41:26;4.35;;;3.92;;
9248;SDS011;4660;41.768;26.198;2023-07-31T13:43:52;4.20;;;3.90;;
9248;SDS011;4660;41.768;26.198;2023-07-31T13:46:17;4.63;;;4.22;;
9248;SDS011;4660;41.768;26.198;2023-07-31T13:48:43;3.97;;;3.67;;
9248;SDS011;4660;41.768;26.198;2023-07-31T13:51:10;4.07;;;3.78;;
9248;SDS011;4660;41.768;26.198;2023-07-31T13:53:35;4.53;;;4.22;;
9248;SDS011;4660;41.768;26.198;2023-07-31T13:56:01;4.10;;;3.80;;
9248;SDS011;4660;41.768;26.198;2023-07-31T13:58:27;4.38;;;4.03;;
9248;SDS011;4660;41.768;26.198;2023-07-31T14:00:52;4.47;;;4.07;;
9248;SDS011;4660;41.768;26.198;2023-07-31T14:03:19;4.15;;;3.85;;
9248;SDS011;4660;41.768;26.198;2023-07-31T14:05:44;4.63;;;4.30;;
9248;SDS011;4660;41.768;26.198;2023-07-31T14:08:10;4.63;;;4.32;;
9248;SDS011;4660;41.768;26.198;2023-07-31T14:10:35;3.88;;;3.60;;
9248;SDS011;4660;41.768;26.198;2023-07-31T14:13:01;4.53;;;4.13;;
9248;SDS011;4660;41.768;26.198;2023-07-31T14:15:26;4.60;;;4.20;;
9248;SDS011;4660;41.768;26.198;2023-07-31T14:17:52;5.35;;;4.20;;
9248;SDS011;4660;41.768;26.198;2023-07-31T14:20:18;4.53;;;4.13;;
9248;SDS011;4660;41.768;26.198;2023-07-31T14:22:44;4.18;;;3.88;;
9248;SDS011;4660;41.768;26.198;2023-07-31T14:25:09;4.97;;;4.50;;
9248;SDS011;4660;41.768;26.198;2023-07-31T14:27:35;4.82;;;4.43;;
9248;SDS011;4660;41.768;26.198;2023-07-31T14:30:01;4.57;;;4.18;;
9248;SDS011;4660;41.768;26.198;2023-07-31T14:32:27;4.00;;;3.70;;
9248;SDS011;4660;41.768;26.198;2023-07-31T14:34:56;4.28;;;3.92;;
9248;SDS011;4660;41.768;26.198;2023-07-31T14:37:22;4.03;;;3.72;;
9248;SDS011;4660;41.768;26.198;2023-07-31T14:39:47;3.90;;;3.60;;
9248;SDS011;4660;41.768;26.198;2023-07-31T14:42:13;3.83;;;3.38;;
9248;SDS011;4660;41.768;26.198;2023-07-31T14:44:38;4.28;;;3.88;;
9248;SDS011;4660;41.768;26.198;2023-07-31T14:47:04;4.15;;;3.85;;
9248;SDS011;4660;41.768;26.198;2023-07-31T14:49:30;5.07;;;4.00;;
9248;SDS011;4660;41.768;26.198;2023-07-31T14:51:55;4.95;;;3.58;;
9248;SDS011;4660;41.768;26.198;2023-07-31T14:54:21;4.15;;;3.85;;
9248;SDS011;4660;41.768;26.198;2023-07-31T14:56:48;4.18;;;3.78;;
9248;SDS011;4660;41.768;26.198;2023-07-31T14:59:13;3.65;;;3.35;;
9248;SDS011;4660;41.768;26.198;2023-07-31T15:01:40;4.60;;;3.80;;
9248;SDS011;4660;41.768;26.198;2023-07-31T15:04:06;4.13;;;3.60;;
9248;SDS011;4660;41.768;26.198;2023-07-31T15:06:32;3.88;;;3.58;;
9248;SDS011;4660;41.768;26.198;2023-07-31T15:08:57;3.60;;;3.30;;
9248;SDS011;4660;41.768;26.198;2023-07-31T15:11:23;4.07;;;3.60;;
9248;SDS011;4660;41.768;26.198;2023-07-31T15:13:49;3.95;;;3.70;;
9248;SDS011;4660;41.768;26.198;2023-07-31T15:16:15;3.90;;;3.60;;
9248;SDS011;4660;41.768;26.198;2023-07-31T15:18:41;4.30;;;3.90;;